sensor_id;sensor_type;location;lat;lon;timestamp;temperature;humidity
66150;DHT22;52952;50.904;20.648;2024-02-14T00:00:14;28;85
66150;DHT22;52952;50.904;20.648;2024-02-14T00:10:07;28;85
66150;DHT22;52952;50.904;20.648;2024-02-14T00:20:12;28;85
66150;DHT22;52952;50.904;20.648;2024-02-14T00:30:02;28;85
66150;DHT22;52952;50.904;20.648;2024-02-14T00:40:11;28.24;85
66150;DHT22;52952;50.904;20.648;2024-02-14T00:50:07;28.24;85
66150;DHT22;52952;50.904;20.648;2024-02-14T01:00:07;28.24;85
66150;DHT22;52952;50.904;20.648;2024-02-14T01:10:07;28.34;83
66150;DHT22;52952;50.904;20.648;2024-02-14T01:20:06;28.34;83
66150;DHT22;52952;50.904;20.648;2024-02-14T01:30:03;28.34;83
66150;DHT22;52952;50.904;20.648;2024-02-14T01:40:08;28.34;83
66150;DHT22;52952;50.904;20.648;2024-02-14T01:50:14;28.34;83
66150;DHT22;52952;50.904;20.648;2024-02-14T02:00:23;28.34;83
66150;DHT22;52952;50.904;20.648;2024-02-14T02:10:13;28.15;82
66150;DHT22;52952;50.904;20.648;2024-02-14T02:20:12;28.15;82
66150;DHT22;52952;50.904;20.648;2024-02-14T02:30:02;28.15;82
66150;DHT22;52952;50.904;20.648;2024-02-14T02:40:07;28.15;82
66150;DHT22;52952;50.904;20.648;2024-02-14T02:50:08;28.15;82
66150;DHT22;52952;50.904;20.648;2024-02-14T03:00:14;28.15;82
66150;DHT22;52952;50.904;20.648;2024-02-14T03:10:05;27;79
66150;DHT22;52952;50.904;20.648;2024-02-14T03:20:03;27;79
66150;DHT22;52952;50.904;20.648;2024-02-14T03:30:11;27;79
66150;DHT22;52952;50.904;20.648;2024-02-14T03:40:15;27;79
66150;DHT22;52952;50.904;20.648;2024-02-14T03:50:06;27;79
66150;DHT22;52952;50.904;20.648;2024-02-14T04:00:12;27;79
66150;DHT22;52952;50.904;20.648;2024-02-14T04:20:11;28;77
66150;DHT22;52952;50.904;20.648;2024-02-14T04:30:04;28;77
66150;DHT22;52952;50.904;20.648;2024-02-14T04:40:09;28;78
66150;DHT22;52952;50.904;20.648;2024-02-14T04:50:07;28;78
66150;DHT22;52952;50.904;20.648;2024-02-14T05:00:18;28;78
66150;DHT22;52952;50.904;20.648;2024-02-14T05:10:02;28;78
66150;DHT22;52952;50.904;20.648;2024-02-14T05:20:10;28;78
66150;DHT22;52952;50.904;20.648;2024-02-14T05:30:06;28;78
66150;DHT22;52952;50.904;20.648;2024-02-14T05:40:12;28;78
66150;DHT22;52952;50.904;20.648;2024-02-14T05:50:15;28;78
66150;DHT22;52952;50.904;20.648;2024-02-14T06:00:03;28;78
66150;DHT22;52952;50.904;20.648;2024-02-14T06:10:02;28;78
66150;DHT22;52952;50.904;20.648;2024-02-14T06:20:13;28;78
66150;DHT22;52952;50.904;20.648;2024-02-14T06:30:11;28;78
66150;DHT22;52952;50.904;20.648;2024-02-14T06:40:12;28;78
66150;DHT22;52952;50.904;20.648;2024-02-14T06:50:13;28;78
66150;DHT22;52952;50.904;20.648;2024-02-14T07:00:17;28;78
66150;DHT22;52952;50.904;20.648;2024-02-14T07:20:03;28;76
66150;DHT22;52952;50.904;20.648;2024-02-14T07:30:10;28;76
66150;DHT22;52952;50.904;20.648;2024-02-14T07:40:07;28;76
66150;DHT22;52952;50.904;20.648;2024-02-14T07:50:06;28;76
66150;DHT22;52952;50.904;20.648;2024-02-14T08:00:23;28;76
66150;DHT22;52952;50.904;20.648;2024-02-14T08:10:03;28;78
66150;DHT22;52952;50.904;20.648;2024-02-14T08:20:14;28;78
66150;DHT22;52952;50.904;20.648;2024-02-14T08:30:10;28;78
66150;DHT22;52952;50.904;20.648;2024-02-14T08:40:14;28;78
66150;DHT22;52952;50.904;20.648;2024-02-14T08:50:13;28;78
66150;DHT22;52952;50.904;20.648;2024-02-14T09:00:12;28;78
66150;DHT22;52952;50.904;20.648;2024-02-14T09:10:09;28;78
66150;DHT22;52952;50.904;20.648;2024-02-14T09:20:05;28;78
66150;DHT22;52952;50.904;20.648;2024-02-14T09:30:03;28;78
66150;DHT22;52952;50.904;20.648;2024-02-14T09:40:15;28;78
66150;DHT22;52952;50.904;20.648;2024-02-14T09:50:13;28;78
66150;DHT22;52952;50.904;20.648;2024-02-14T10:00:11;28;78
66150;DHT22;52952;50.904;20.648;2024-02-14T10:10:18;28;77
66150;DHT22;52952;50.904;20.648;2024-02-14T10:20:03;28;77
66150;DHT22;52952;50.904;20.648;2024-02-14T10:30:15;28;77
66150;DHT22;52952;50.904;20.648;2024-02-14T10:40:14;28;76
66150;DHT22;52952;50.904;20.648;2024-02-14T10:50:15;28;76
66150;DHT22;52952;50.904;20.648;2024-02-14T11:00:16;28;76
66150;DHT22;52952;50.904;20.648;2024-02-14T11:10:08;28;76
66150;DHT22;52952;50.904;20.648;2024-02-14T11:20:13;28;76
66150;DHT22;52952;50.904;20.648;2024-02-14T11:30:13;28;76
66150;DHT22;52952;50.904;20.648;2024-02-14T11:40:09;28;76
66150;DHT22;52952;50.904;20.648;2024-02-14T11:50:13;28;76
66150;DHT22;52952;50.904;20.648;2024-02-14T12:00:15;28;76
66150;DHT22;52952;50.904;20.648;2024-02-14T12:10:13;29;75
66150;DHT22;52952;50.904;20.648;2024-02-14T12:20:25;29;75
66150;DHT22;52952;50.904;20.648;2024-02-14T12:30:17;29;75
66150;DHT22;52952;50.904;20.648;2024-02-14T12:40:03;29;74
66150;DHT22;52952;50.904;20.648;2024-02-14T12:50:08;29;74
66150;DHT22;52952;50.904;20.648;2024-02-14T13:10:14;29;74
66150;DHT22;52952;50.904;20.648;2024-02-14T13:20:12;29;74
66150;DHT22;52952;50.904;20.648;2024-02-14T13:30:08;29;74
66150;DHT22;52952;50.904;20.648;2024-02-14T13:40:02;29;74
66150;DHT22;52952;50.904;20.648;2024-02-14T13:50:08;29;74
66150;DHT22;52952;50.904;20.648;2024-02-14T14:00:08;29;74
66150;DHT22;52952;50.904;20.648;2024-02-14T14:20:02;29;74
66150;DHT22;52952;50.904;20.648;2024-02-14T14:30:09;29;74
66150;DHT22;52952;50.904;20.648;2024-02-14T14:40:13;29;73
66150;DHT22;52952;50.904;20.648;2024-02-14T14:50:05;29;73
66150;DHT22;52952;50.904;20.648;2024-02-14T15:00:03;29;73
66150;DHT22;52952;50.904;20.648;2024-02-14T15:10:11;29;73
66150;DHT22;52952;50.904;20.648;2024-02-14T15:20:06;29;73
66150;DHT22;52952;50.904;20.648;2024-02-14T15:30:03;29;73
66150;DHT22;52952;50.904;20.648;2024-02-14T15:40:07;29;73
66150;DHT22;52952;50.904;20.648;2024-02-14T15:50:13;29;73
66150;DHT22;52952;50.904;20.648;2024-02-14T16:00:18;29;73
66150;DHT22;52952;50.904;20.648;2024-02-14T16:10:02;29;73
66150;DHT22;52952;50.904;20.648;2024-02-14T16:20:09;29;73
66150;DHT22;52952;50.904;20.648;2024-02-14T16:30:06;29;73
66150;DHT22;52952;50.904;20.648;2024-02-14T16:40:13;29;73
66150;DHT22;52952;50.904;20.648;2024-02-14T16:50:10;29;73
66150;DHT22;52952;50.904;20.648;2024-02-14T17:00:16;29;73
66150;DHT22;52952;50.904;20.648;2024-02-14T17:20:12;29;73
66150;DHT22;52952;50.904;20.648;2024-02-14T17:30:15;29;73
66150;DHT22;52952;50.904;20.648;2024-02-14T17:50:08;29;74
66150;DHT22;52952;50.904;20.648;2024-02-14T18:00:13;29;74
66150;DHT22;52952;50.904;20.648;2024-02-14T18:20:11;29;74
66150;DHT22;52952;50.904;20.648;2024-02-14T18:30:10;29;74
66150;DHT22;52952;50.904;20.648;2024-02-14T18:50:10;29;74
66150;DHT22;52952;50.904;20.648;2024-02-14T19:00:02;29;74
66150;DHT22;52952;50.904;20.648;2024-02-14T19:20:03;29;77
66150;DHT22;52952;50.904;20.648;2024-02-14T19:30:08;29;77
66150;DHT22;52952;50.904;20.648;2024-02-14T19:40:02;29;77
66150;DHT22;52952;50.904;20.648;2024-02-14T19:50:15;28;80
66150;DHT22;52952;50.904;20.648;2024-02-14T20:00:14;28;80
66150;DHT22;52952;50.904;20.648;2024-02-14T20:10:08;28;80
66150;DHT22;52952;50.904;20.648;2024-02-14T20:20:08;28;82
66150;DHT22;52952;50.904;20.648;2024-02-14T20:30:08;28;82
66150;DHT22;52952;50.904;20.648;2024-02-14T20:40:08;28;82
66150;DHT22;52952;50.904;20.648;2024-02-14T20:50:05;28;81
66150;DHT22;52952;50.904;20.648;2024-02-14T21:00:10;28;81
66150;DHT22;52952;50.904;20.648;2024-02-14T21:10:08;28;81
66150;DHT22;52952;50.904;20.648;2024-02-14T21:20:03;28;81
66150;DHT22;52952;50.904;20.648;2024-02-14T21:30:14;28;81
66150;DHT22;52952;50.904;20.648;2024-02-14T21:40:13;28;81
66150;DHT22;52952;50.904;20.648;2024-02-14T21:50:05;28;82
66150;DHT22;52952;50.904;20.648;2024-02-14T22:00:02;28;82
66150;DHT22;52952;50.904;20.648;2024-02-14T22:10:02;28;82
66150;DHT22;52952;50.904;20.648;2024-02-14T22:20:07;28;82
66150;DHT22;52952;50.904;20.648;2024-02-14T22:30:16;28;82
66150;DHT22;52952;50.904;20.648;2024-02-14T22:40:08;28;82
66150;DHT22;52952;50.904;20.648;2024-02-14T22:50:07;28;82
66150;DHT22;52952;50.904;20.648;2024-02-14T23:00:23;28;82
66150;DHT22;52952;50.904;20.648;2024-02-14T23:10:11;28.24;82
66150;DHT22;52952;50.904;20.648;2024-02-14T23:20:04;28.24;82
66150;DHT22;52952;50.904;20.648;2024-02-14T23:30:14;28.24;82
66150;DHT22;52952;50.904;20.648;2024-02-14T23:40:10;28;82
66150;DHT22;52952;50.904;20.648;2024-02-14T23:50:13;28;82
